sensor_id;sensor_type;location;lat;lon;timestamp;P1;durP1;ratioP1;P2;durP2;ratioP2
41311;SDS011;27061;41.648;24.568;2023-03-01T00:01:21;21.55;;;1.52;;
41311;SDS011;27061;41.648;24.568;2023-03-01T00:04:03;20.10;;;2.53;;
41311;SDS011;27061;41.648;24.568;2023-03-01T00:06:31;16.58;;;2.22;;
41311;SDS011;27061;41.648;24.568;2023-03-01T00:08:58;11.63;;;2.03;;
41311;SDS011;27061;41.648;24.568;2023-03-01T00:11:26;3.33;;;1.40;;
41311;SDS011;27061;41.648;24.568;2023-03-01T00:13:58;5.85;;;1.30;;
41311;SDS011;27061;41.648;24.568;2023-03-01T00:16:28;7.55;;;1.00;;
41311;SDS011;27061;41.648;24.568;2023-03-01T00:18:58;11.10;;;1.60;;
41311;SDS011;27061;41.648;24.568;2023-03-01T00:21:26;5.65;;;1.10;;
41311;SDS011;27061;41.648;24.568;2023-03-01T00:23:54;3.58;;;3.28;;
41311;SDS011;27061;41.648;24.568;2023-03-01T00:26:21;13.35;;;7.82;;
41311;SDS011;27061;41.648;24.568;2023-03-01T00:28:50;6.80;;;5.05;;
41311;SDS011;27061;41.648;24.568;2023-03-01T00:31:19;3.38;;;3.03;;
41311;SDS011;27061;41.648;24.568;2023-03-01T00:33:48;3.08;;;2.75;;
41311;SDS011;27061;41.648;24.568;2023-03-01T00:36:15;2.53;;;1.85;;
41311;SDS011;27061;41.648;24.568;2023-03-01T00:38:43;8.38;;;1.60;;
41311;SDS011;27061;41.648;24.568;2023-03-01T00:41:13;5.55;;;1.63;;
41311;SDS011;27061;41.648;24.568;2023-03-01T00:43:41;1.48;;;1.38;;
41311;SDS011;27061;41.648;24.568;2023-03-01T00:46:10;2.05;;;1.50;;
41311;SDS011;27061;41.648;24.568;2023-03-01T00:48:39;10.20;;;1.95;;
41311;SDS011;27061;41.648;24.568;2023-03-01T00:51:11;6.15;;;1.30;;
41311;SDS011;27061;41.648;24.568;2023-03-01T00:53:40;9.55;;;1.30;;
41311;SDS011;27061;41.648;24.568;2023-03-01T00:56:09;0.77;;;0.77;;
41311;SDS011;27061;41.648;24.568;2023-03-01T00:58:37;12.40;;;1.20;;
41311;SDS011;27061;41.648;24.568;2023-03-01T01:01:09;7.38;;;1.10;;
41311;SDS011;27061;41.648;24.568;2023-03-01T01:03:56;2.05;;;1.30;;
41311;SDS011;27061;41.648;24.568;2023-03-01T01:06:27;1.50;;;1.40;;
41311;SDS011;27061;41.648;24.568;2023-03-01T01:08:57;44.60;;;3.40;;
41311;SDS011;27061;41.648;24.568;2023-03-01T01:11:25;15.38;;;2.10;;
41311;SDS011;27061;41.648;24.568;2023-03-01T01:13:53;16.00;;;2.20;;
41311;SDS011;27061;41.648;24.568;2023-03-01T01:16:21;22.23;;;2.60;;
41311;SDS011;27061;41.648;24.568;2023-03-01T01:18:50;7.90;;;2.17;;
41311;SDS011;27061;41.648;24.568;2023-03-01T01:21:18;5.18;;;2.28;;
41311;SDS011;27061;41.648;24.568;2023-03-01T01:23:47;19.55;;;2.63;;
41311;SDS011;27061;41.648;24.568;2023-03-01T01:26:19;32.45;;;2.88;;
41311;SDS011;27061;41.648;24.568;2023-03-01T01:28:48;4.10;;;3.03;;
41311;SDS011;27061;41.648;24.568;2023-03-01T01:31:16;4.90;;;2.40;;
41311;SDS011;27061;41.648;24.568;2023-03-01T01:33:45;5.07;;;3.20;;
41311;SDS011;27061;41.648;24.568;2023-03-01T01:36:16;9.35;;;3.28;;
41311;SDS011;27061;41.648;24.568;2023-03-01T01:38:43;2.53;;;2.33;;
41311;SDS011;27061;41.648;24.568;2023-03-01T01:41:11;4.30;;;3.30;;
41311;SDS011;27061;41.648;24.568;2023-03-01T01:44:23;3.10;;;2.80;;
41311;SDS011;27061;41.648;24.568;2023-03-01T01:47:01;9.93;;;2.78;;
41311;SDS011;27061;41.648;24.568;2023-03-01T01:49:42;6.57;;;3.13;;
41311;SDS011;27061;41.648;24.568;2023-03-01T01:52:19;4.70;;;3.38;;
41311;SDS011;27061;41.648;24.568;2023-03-01T01:54:55;20.38;;;3.53;;
41311;SDS011;27061;41.648;24.568;2023-03-01T01:57:36;20.00;;;3.38;;
41311;SDS011;27061;41.648;24.568;2023-03-01T02:00:08;9.45;;;3.22;;
41311;SDS011;27061;41.648;24.568;2023-03-01T02:02:39;6.85;;;3.25;;
41311;SDS011;27061;41.648;24.568;2023-03-01T02:05:11;23.52;;;4.25;;
41311;SDS011;27061;41.648;24.568;2023-03-01T02:07:47;14.68;;;4.10;;
41311;SDS011;27061;41.648;24.568;2023-03-01T02:10:18;10.77;;;4.60;;
41311;SDS011;27061;41.648;24.568;2023-03-01T02:12:47;11.45;;;3.67;;
41311;SDS011;27061;41.648;24.568;2023-03-01T02:15:17;12.75;;;4.97;;
41311;SDS011;27061;41.648;24.568;2023-03-01T02:17:45;9.30;;;4.57;;
41311;SDS011;27061;41.648;24.568;2023-03-01T02:20:23;8.80;;;3.80;;
41311;SDS011;27061;41.648;24.568;2023-03-01T02:22:59;3.50;;;3.20;;
41311;SDS011;27061;41.648;24.568;2023-03-01T02:30:46;18.92;;;3.15;;
41311;SDS011;27061;41.648;24.568;2023-03-01T02:33:36;6.80;;;3.10;;
41311;SDS011;27061;41.648;24.568;2023-03-01T02:36:11;12.68;;;3.00;;
41311;SDS011;27061;41.648;24.568;2023-03-01T02:38:42;33.70;;;3.47;;
41311;SDS011;27061;41.648;24.568;2023-03-01T02:41:11;22.60;;;2.10;;
41311;SDS011;27061;41.648;24.568;2023-03-01T02:43:41;79.88;;;3.75;;
41311;SDS011;27061;41.648;24.568;2023-03-01T02:46:16;14.30;;;2.70;;
41311;SDS011;27061;41.648;24.568;2023-03-01T02:48:53;24.08;;;2.30;;
41311;SDS011;27061;41.648;24.568;2023-03-01T02:57:06;381.90;;;13.18;;
41311;SDS011;27061;41.648;24.568;2023-03-01T02:59:34;331.30;;;16.90;;
41311;SDS011;27061;41.648;24.568;2023-03-01T03:02:07;62.85;;;15.55;;
41311;SDS011;27061;41.648;24.568;2023-03-01T03:05:24;66.63;;;11.07;;
41311;SDS011;27061;41.648;24.568;2023-03-01T03:07:57;155.18;;;7.57;;
41311;SDS011;27061;41.648;24.568;2023-03-01T03:10:32;79.13;;;5.15;;
41311;SDS011;27061;41.648;24.568;2023-03-01T03:13:03;15.45;;;1.60;;
41311;SDS011;27061;41.648;24.568;2023-03-01T03:15:33;109.45;;;4.18;;
41311;SDS011;27061;41.648;24.568;2023-03-01T03:18:03;76.82;;;3.72;;
41311;SDS011;27061;41.648;24.568;2023-03-01T03:20:33;35.90;;;1.95;;
41311;SDS011;27061;41.648;24.568;2023-03-01T03:23:01;126.35;;;4.50;;
41311;SDS011;27061;41.648;24.568;2023-03-01T03:25:28;93.35;;;3.08;;
41311;SDS011;27061;41.648;24.568;2023-03-01T03:27:56;124.72;;;6.00;;
41311;SDS011;27061;41.648;24.568;2023-03-01T03:30:25;54.35;;;2.75;;
41311;SDS011;27061;41.648;24.568;2023-03-01T03:32:58;43.03;;;4.18;;
41311;SDS011;27061;41.648;24.568;2023-03-01T03:37:58;87.57;;;3.45;;
41311;SDS011;27061;41.648;24.568;2023-03-01T03:40:30;78.05;;;3.13;;
41311;SDS011;27061;41.648;24.568;2023-03-01T03:42:57;141.73;;;4.15;;
41311;SDS011;27061;41.648;24.568;2023-03-01T03:46:01;6.10;;;2.92;;
41311;SDS011;27061;41.648;24.568;2023-03-01T03:48:42;25.63;;;4.85;;
41311;SDS011;27061;41.648;24.568;2023-03-01T03:51:11;51.13;;;4.07;;
41311;SDS011;27061;41.648;24.568;2023-03-01T03:53:39;42.85;;;2.20;;
41311;SDS011;27061;41.648;24.568;2023-03-01T03:56:07;54.53;;;2.40;;
41311;SDS011;27061;41.648;24.568;2023-03-01T03:58:35;19.55;;;1.95;;
41311;SDS011;27061;41.648;24.568;2023-03-01T04:01:02;26.42;;;2.63;;
41311;SDS011;27061;41.648;24.568;2023-03-01T04:03:30;70.22;;;3.80;;
41311;SDS011;27061;41.648;24.568;2023-03-01T04:05:59;22.05;;;2.58;;
41311;SDS011;27061;41.648;24.568;2023-03-01T04:08:27;44.83;;;3.80;;
41311;SDS011;27061;41.648;24.568;2023-03-01T04:10:59;20.02;;;7.10;;
41311;SDS011;27061;41.648;24.568;2023-03-01T04:13:47;32.30;;;7.38;;
41311;SDS011;27061;41.648;24.568;2023-03-01T04:16:15;12.95;;;6.10;;
41311;SDS011;27061;41.648;24.568;2023-03-01T04:18:42;15.55;;;4.13;;
41311;SDS011;27061;41.648;24.568;2023-03-01T04:21:10;38.92;;;4.07;;
41311;SDS011;27061;41.648;24.568;2023-03-01T04:23:38;12.68;;;4.55;;
41311;SDS011;27061;41.648;24.568;2023-03-01T04:26:05;28.35;;;14.65;;
41311;SDS011;27061;41.648;24.568;2023-03-01T04:28:33;28.98;;;10.68;;
41311;SDS011;27061;41.648;24.568;2023-03-01T04:31:03;6.22;;;2.50;;
41311;SDS011;27061;41.648;24.568;2023-03-01T04:33:51;7.57;;;2.25;;
41311;SDS011;27061;41.648;24.568;2023-03-01T04:36:24;3.72;;;3.28;;
41311;SDS011;27061;41.648;24.568;2023-03-01T04:38:54;9.63;;;3.63;;
41311;SDS011;27061;41.648;24.568;2023-03-01T04:41:23;6.13;;;3.05;;
41311;SDS011;27061;41.648;24.568;2023-03-01T04:43:51;37.28;;;5.35;;
41311;SDS011;27061;41.648;24.568;2023-03-01T04:46:19;12.32;;;2.83;;
41311;SDS011;27061;41.648;24.568;2023-03-01T04:48:47;37.38;;;3.67;;
41311;SDS011;27061;41.648;24.568;2023-03-01T04:51:14;14.15;;;2.83;;
41311;SDS011;27061;41.648;24.568;2023-03-01T04:53:42;7.85;;;2.90;;
41311;SDS011;27061;41.648;24.568;2023-03-01T04:56:10;7.97;;;2.67;;
41311;SDS011;27061;41.648;24.568;2023-03-01T04:58:37;14.10;;;2.92;;
41311;SDS011;27061;41.648;24.568;2023-03-01T05:01:08;21.00;;;3.30;;
41311;SDS011;27061;41.648;24.568;2023-03-01T05:03:45;24.60;;;2.80;;
41311;SDS011;27061;41.648;24.568;2023-03-01T05:06:15;53.85;;;3.35;;
41311;SDS011;27061;41.648;24.568;2023-03-01T05:08:43;23.33;;;3.15;;
41311;SDS011;27061;41.648;24.568;2023-03-01T05:11:10;22.98;;;3.92;;
41311;SDS011;27061;41.648;24.568;2023-03-01T05:13:39;61.53;;;4.85;;
41311;SDS011;27061;41.648;24.568;2023-03-01T05:16:06;109.68;;;5.10;;
41311;SDS011;27061;41.648;24.568;2023-03-01T05:18:39;66.47;;;4.38;;
41311;SDS011;27061;41.648;24.568;2023-03-01T05:21:07;25.25;;;3.58;;
41311;SDS011;27061;41.648;24.568;2023-03-01T05:23:39;37.05;;;4.75;;
41311;SDS011;27061;41.648;24.568;2023-03-01T05:26:07;10.80;;;3.20;;
41311;SDS011;27061;41.648;24.568;2023-03-01T05:28:52;15.05;;;3.05;;
41311;SDS011;27061;41.648;24.568;2023-03-01T05:31:23;79.72;;;6.72;;
41311;SDS011;27061;41.648;24.568;2023-03-01T05:33:50;18.55;;;3.38;;
41311;SDS011;27061;41.648;24.568;2023-03-01T05:36:17;57.05;;;4.07;;
41311;SDS011;27061;41.648;24.568;2023-03-01T05:38:44;33.88;;;2.72;;
41311;SDS011;27061;41.648;24.568;2023-03-01T05:41:15;24.33;;;3.70;;
41311;SDS011;27061;41.648;24.568;2023-03-01T05:43:43;58.55;;;4.63;;
41311;SDS011;27061;41.648;24.568;2023-03-01T05:46:11;17.70;;;3.55;;
41311;SDS011;27061;41.648;24.568;2023-03-01T05:48:40;25.05;;;3.22;;
41311;SDS011;27061;41.648;24.568;2023-03-01T05:51:07;55.10;;;4.10;;
41311;SDS011;27061;41.648;24.568;2023-03-01T05:53:34;10.75;;;2.42;;
41311;SDS011;27061;41.648;24.568;2023-03-01T05:56:03;51.40;;;4.47;;
41311;SDS011;27061;41.648;24.568;2023-03-01T05:58:30;54.80;;;6.20;;
41311;SDS011;27061;41.648;24.568;2023-03-01T06:00:57;76.13;;;4.68;;
41311;SDS011;27061;41.648;24.568;2023-03-01T06:03:24;41.70;;;4.32;;
41311;SDS011;27061;41.648;24.568;2023-03-01T06:05:55;14.70;;;3.03;;
41311;SDS011;27061;41.648;24.568;2023-03-01T06:08:23;41.90;;;4.40;;
41311;SDS011;27061;41.648;24.568;2023-03-01T06:10:51;40.17;;;4.82;;
41311;SDS011;27061;41.648;24.568;2023-03-01T06:13:18;49.30;;;4.53;;
41311;SDS011;27061;41.648;24.568;2023-03-01T06:15:45;60.78;;;7.20;;
41311;SDS011;27061;41.648;24.568;2023-03-01T06:18:12;55.72;;;5.10;;
41311;SDS011;27061;41.648;24.568;2023-03-01T06:20:39;5.75;;;4.55;;
41311;SDS011;27061;41.648;24.568;2023-03-01T06:23:06;35.05;;;6.07;;
41311;SDS011;27061;41.648;24.568;2023-03-01T06:25:35;11.57;;;4.03;;
41311;SDS011;27061;41.648;24.568;2023-03-01T06:28:02;32.85;;;6.15;;
41311;SDS011;27061;41.648;24.568;2023-03-01T06:30:31;13.68;;;5.03;;
41311;SDS011;27061;41.648;24.568;2023-03-01T06:32:58;65.28;;;7.38;;
41311;SDS011;27061;41.648;24.568;2023-03-01T06:35:28;10.00;;;5.22;;
41311;SDS011;27061;41.648;24.568;2023-03-01T06:37:59;47.55;;;7.20;;
41311;SDS011;27061;41.648;24.568;2023-03-01T06:40:28;11.70;;;5.95;;
41311;SDS011;27061;41.648;24.568;2023-03-01T06:42:57;20.60;;;5.70;;
41311;SDS011;27061;41.648;24.568;2023-03-01T06:45:26;22.65;;;5.82;;
41311;SDS011;27061;41.648;24.568;2023-03-01T06:48:00;24.33;;;6.43;;
41311;SDS011;27061;41.648;24.568;2023-03-01T06:50:28;12.23;;;6.88;;
41311;SDS011;27061;41.648;24.568;2023-03-01T06:52:56;38.45;;;8.00;;
41311;SDS011;27061;41.648;24.568;2023-03-01T06:55:23;55.40;;;7.85;;
41311;SDS011;27061;41.648;24.568;2023-03-01T06:57:54;43.55;;;7.30;;
41311;SDS011;27061;41.648;24.568;2023-03-01T07:00:22;13.40;;;5.53;;
41311;SDS011;27061;41.648;24.568;2023-03-01T07:02:50;24.17;;;6.65;;
41311;SDS011;27061;41.648;24.568;2023-03-01T07:05:17;75.30;;;10.10;;
41311;SDS011;27061;41.648;24.568;2023-03-01T07:07:45;23.88;;;7.40;;
41311;SDS011;27061;41.648;24.568;2023-03-01T07:10:12;54.80;;;8.05;;
41311;SDS011;27061;41.648;24.568;2023-03-01T07:12:39;23.92;;;6.15;;
41311;SDS011;27061;41.648;24.568;2023-03-01T07:15:08;37.33;;;6.38;;
41311;SDS011;27061;41.648;24.568;2023-03-01T07:17:36;41.63;;;7.60;;
41311;SDS011;27061;41.648;24.568;2023-03-01T07:20:03;36.60;;;7.63;;
41311;SDS011;27061;41.648;24.568;2023-03-01T07:22:31;69.72;;;8.77;;
41311;SDS011;27061;41.648;24.568;2023-03-01T07:24:58;34.33;;;10.15;;
41311;SDS011;27061;41.648;24.568;2023-03-01T07:27:25;28.80;;;9.15;;
41311;SDS011;27061;41.648;24.568;2023-03-01T07:29:52;21.15;;;6.88;;
41311;SDS011;27061;41.648;24.568;2023-03-01T07:32:19;14.77;;;6.00;;
41311;SDS011;27061;41.648;24.568;2023-03-01T07:34:46;40.17;;;7.22;;
41311;SDS011;27061;41.648;24.568;2023-03-01T07:37:13;18.02;;;6.45;;
41311;SDS011;27061;41.648;24.568;2023-03-01T07:39:40;17.63;;;6.50;;
41311;SDS011;27061;41.648;24.568;2023-03-01T07:42:07;16.00;;;6.63;;
41311;SDS011;27061;41.648;24.568;2023-03-01T07:44:34;11.40;;;5.63;;
41311;SDS011;27061;41.648;24.568;2023-03-01T07:47:02;23.55;;;10.77;;
41311;SDS011;27061;41.648;24.568;2023-03-01T07:49:30;14.10;;;5.82;;
41311;SDS011;27061;41.648;24.568;2023-03-01T07:51:57;14.45;;;7.28;;
41311;SDS011;27061;41.648;24.568;2023-03-01T07:54:24;183.80;;;112.63;;
41311;SDS011;27061;41.648;24.568;2023-03-01T07:56:52;47.85;;;25.00;;
41311;SDS011;27061;41.648;24.568;2023-03-01T07:59:21;12.88;;;8.18;;
41311;SDS011;27061;41.648;24.568;2023-03-01T08:01:50;30.60;;;12.93;;
41311;SDS011;27061;41.648;24.568;2023-03-01T08:04:17;18.08;;;6.43;;
41311;SDS011;27061;41.648;24.568;2023-03-01T08:06:44;18.13;;;6.75;;
41311;SDS011;27061;41.648;24.568;2023-03-01T08:09:11;16.30;;;7.85;;
41311;SDS011;27061;41.648;24.568;2023-03-01T08:11:38;10.75;;;5.70;;
41311;SDS011;27061;41.648;24.568;2023-03-01T08:14:05;12.50;;;6.07;;
41311;SDS011;27061;41.648;24.568;2023-03-01T08:16:33;10.23;;;5.75;;
41311;SDS011;27061;41.648;24.568;2023-03-01T08:19:05;13.93;;;5.80;;
41311;SDS011;27061;41.648;24.568;2023-03-01T08:21:33;10.18;;;5.53;;
41311;SDS011;27061;41.648;24.568;2023-03-01T08:24:03;15.70;;;7.40;;
41311;SDS011;27061;41.648;24.568;2023-03-01T08:26:32;9.30;;;6.05;;
41311;SDS011;27061;41.648;24.568;2023-03-01T08:29:00;13.90;;;4.88;;
41311;SDS011;27061;41.648;24.568;2023-03-01T08:31:29;8.13;;;3.97;;
41311;SDS011;27061;41.648;24.568;2023-03-01T08:33:59;9.48;;;4.63;;
41311;SDS011;27061;41.648;24.568;2023-03-01T08:36:28;10.32;;;4.75;;
41311;SDS011;27061;41.648;24.568;2023-03-01T08:39:00;11.75;;;4.93;;
41311;SDS011;27061;41.648;24.568;2023-03-01T08:41:27;5.97;;;4.30;;
41311;SDS011;27061;41.648;24.568;2023-03-01T08:43:54;15.05;;;3.83;;
41311;SDS011;27061;41.648;24.568;2023-03-01T08:46:29;13.73;;;5.03;;
41311;SDS011;27061;41.648;24.568;2023-03-01T08:49:08;8.60;;;4.95;;
41311;SDS011;27061;41.648;24.568;2023-03-01T08:51:39;9.98;;;5.35;;
41311;SDS011;27061;41.648;24.568;2023-03-01T08:54:09;12.05;;;5.20;;
41311;SDS011;27061;41.648;24.568;2023-03-01T08:56:37;18.35;;;5.30;;
41311;SDS011;27061;41.648;24.568;2023-03-01T08:59:05;9.18;;;4.40;;
41311;SDS011;27061;41.648;24.568;2023-03-01T09:01:32;9.13;;;3.97;;
41311;SDS011;27061;41.648;24.568;2023-03-01T09:04:00;13.45;;;6.25;;
41311;SDS011;27061;41.648;24.568;2023-03-01T09:06:29;11.63;;;5.80;;
41311;SDS011;27061;41.648;24.568;2023-03-01T09:08:58;52.40;;;7.15;;
41311;SDS011;27061;41.648;24.568;2023-03-01T09:11:26;16.00;;;6.80;;
41311;SDS011;27061;41.648;24.568;2023-03-01T09:13:54;19.63;;;6.03;;
41311;SDS011;27061;41.648;24.568;2023-03-01T09:16:22;11.15;;;6.28;;
41311;SDS011;27061;41.648;24.568;2023-03-01T09:18:50;29.70;;;6.57;;
41311;SDS011;27061;41.648;24.568;2023-03-01T09:21:19;19.25;;;7.15;;
41311;SDS011;27061;41.648;24.568;2023-03-01T09:26:31;10.95;;;5.63;;
41311;SDS011;27061;41.648;24.568;2023-03-01T09:28:58;14.13;;;5.70;;
41311;SDS011;27061;41.648;24.568;2023-03-01T09:31:25;17.08;;;6.32;;
41311;SDS011;27061;41.648;24.568;2023-03-01T09:33:53;15.52;;;6.10;;
41311;SDS011;27061;41.648;24.568;2023-03-01T09:36:21;16.35;;;6.03;;
41311;SDS011;27061;41.648;24.568;2023-03-01T09:38:50;12.02;;;5.25;;
41311;SDS011;27061;41.648;24.568;2023-03-01T09:43:56;17.33;;;5.82;;
41311;SDS011;27061;41.648;24.568;2023-03-01T09:46:31;12.38;;;5.00;;
41311;SDS011;27061;41.648;24.568;2023-03-01T09:49:05;9.70;;;5.40;;
41311;SDS011;27061;41.648;24.568;2023-03-01T09:51:41;18.33;;;5.32;;
41311;SDS011;27061;41.648;24.568;2023-03-01T09:54:10;14.38;;;5.63;;
41311;SDS011;27061;41.648;24.568;2023-03-01T09:56:45;12.02;;;6.20;;
41311;SDS011;27061;41.648;24.568;2023-03-01T09:59:25;14.82;;;6.53;;
41311;SDS011;27061;41.648;24.568;2023-03-01T10:02:07;16.90;;;5.40;;
41311;SDS011;27061;41.648;24.568;2023-03-01T10:05:04;12.55;;;5.53;;
41311;SDS011;27061;41.648;24.568;2023-03-01T10:08:13;11.13;;;5.28;;
41311;SDS011;27061;41.648;24.568;2023-03-01T10:10:53;17.50;;;6.07;;
41311;SDS011;27061;41.648;24.568;2023-03-01T10:13:42;7.50;;;4.35;;
41311;SDS011;27061;41.648;24.568;2023-03-01T10:19:06;9.02;;;4.70;;
41311;SDS011;27061;41.648;24.568;2023-03-01T10:21:41;4.93;;;3.80;;
41311;SDS011;27061;41.648;24.568;2023-03-01T10:24:13;7.88;;;4.15;;
41311;SDS011;27061;41.648;24.568;2023-03-01T10:29:25;6.38;;;3.80;;
41311;SDS011;27061;41.648;24.568;2023-03-01T10:31:58;7.97;;;4.07;;
41311;SDS011;27061;41.648;24.568;2023-03-01T10:34:29;8.50;;;3.80;;
41311;SDS011;27061;41.648;24.568;2023-03-01T10:37:08;14.50;;;4.18;;
41311;SDS011;27061;41.648;24.568;2023-03-01T10:42:46;8.27;;;4.28;;
41311;SDS011;27061;41.648;24.568;2023-03-01T10:45:17;24.08;;;4.93;;
41311;SDS011;27061;41.648;24.568;2023-03-01T10:48:02;24.33;;;4.88;;
41311;SDS011;27061;41.648;24.568;2023-03-01T10:50:44;11.05;;;4.35;;
41311;SDS011;27061;41.648;24.568;2023-03-01T10:53:29;7.97;;;4.07;;
41311;SDS011;27061;41.648;24.568;2023-03-01T10:58:37;10.38;;;5.57;;
41311;SDS011;27061;41.648;24.568;2023-03-01T11:01:26;10.20;;;5.75;;
41311;SDS011;27061;41.648;24.568;2023-03-01T11:06:34;8.45;;;5.50;;
41311;SDS011;27061;41.648;24.568;2023-03-01T11:09:17;9.95;;;5.72;;
41311;SDS011;27061;41.648;24.568;2023-03-01T11:11:46;10.68;;;5.30;;
41311;SDS011;27061;41.648;24.568;2023-03-01T11:14:25;12.88;;;5.68;;
41311;SDS011;27061;41.648;24.568;2023-03-01T11:19:42;22.45;;;5.60;;
41311;SDS011;27061;41.648;24.568;2023-03-01T11:22:26;10.90;;;6.53;;
41311;SDS011;27061;41.648;24.568;2023-03-01T11:24:54;8.70;;;5.88;;
41311;SDS011;27061;41.648;24.568;2023-03-01T11:27:36;16.00;;;5.53;;
41311;SDS011;27061;41.648;24.568;2023-03-01T11:35:35;9.70;;;5.43;;
41311;SDS011;27061;41.648;24.568;2023-03-01T11:49:16;8.07;;;5.72;;
41311;SDS011;27061;41.648;24.568;2023-03-01T12:19:11;12.32;;;8.50;;
41311;SDS011;27061;41.648;24.568;2023-03-01T12:30:46;17.50;;;8.50;;
41311;SDS011;27061;41.648;24.568;2023-03-01T12:50:42;367.02;;;195.27;;
41311;SDS011;27061;41.648;24.568;2023-03-01T12:53:33;30.08;;;14.77;;
41311;SDS011;27061;41.648;24.568;2023-03-01T12:56:10;30.13;;;15.40;;
41311;SDS011;27061;41.648;24.568;2023-03-01T13:01:40;63.45;;;38.88;;
41311;SDS011;27061;41.648;24.568;2023-03-01T13:04:21;25.27;;;13.73;;
41311;SDS011;27061;41.648;24.568;2023-03-01T13:10:11;93.88;;;49.70;;
41311;SDS011;27061;41.648;24.568;2023-03-01T13:13:02;176.82;;;88.30;;
41311;SDS011;27061;41.648;24.568;2023-03-01T13:15:39;63.55;;;30.63;;
41311;SDS011;27061;41.648;24.568;2023-03-01T13:20:47;18.92;;;9.20;;
41311;SDS011;27061;41.648;24.568;2023-03-01T13:28:44;184.73;;;84.10;;
41311;SDS011;27061;41.648;24.568;2023-03-01T13:33:44;464.48;;;241.45;;
41311;SDS011;27061;41.648;24.568;2023-03-01T13:49:48;808.75;;;338.70;;
41311;SDS011;27061;41.648;24.568;2023-03-01T13:55:00;517.40;;;249.32;;
41311;SDS011;27061;41.648;24.568;2023-03-01T13:57:32;308.88;;;150.55;;
41311;SDS011;27061;41.648;24.568;2023-03-01T14:00:03;422.65;;;201.70;;
41311;SDS011;27061;41.648;24.568;2023-03-01T14:02:32;381.92;;;182.73;;
41311;SDS011;27061;41.648;24.568;2023-03-01T14:05:00;148.43;;;62.47;;
41311;SDS011;27061;41.648;24.568;2023-03-01T14:07:28;63.60;;;29.50;;
41311;SDS011;27061;41.648;24.568;2023-03-01T14:10:02;100.25;;;54.00;;
41311;SDS011;27061;41.648;24.568;2023-03-01T14:12:47;59.88;;;27.52;;
41311;SDS011;27061;41.648;24.568;2023-03-01T14:15:42;29.33;;;17.40;;
41311;SDS011;27061;41.648;24.568;2023-03-01T14:18:37;20.20;;;10.00;;
41311;SDS011;27061;41.648;24.568;2023-03-01T14:21:13;16.70;;;10.65;;
41311;SDS011;27061;41.648;24.568;2023-03-01T14:23:41;22.98;;;13.50;;
41311;SDS011;27061;41.648;24.568;2023-03-01T14:26:09;28.23;;;15.18;;
41311;SDS011;27061;41.648;24.568;2023-03-01T14:28:38;44.47;;;26.15;;
41311;SDS011;27061;41.648;24.568;2023-03-01T14:33:55;25.45;;;18.33;;
41311;SDS011;27061;41.648;24.568;2023-03-01T14:36:26;16.58;;;11.98;;
41311;SDS011;27061;41.648;24.568;2023-03-01T14:38:56;31.48;;;24.92;;
41311;SDS011;27061;41.648;24.568;2023-03-01T14:41:34;21.05;;;11.52;;
41311;SDS011;27061;41.648;24.568;2023-03-01T14:44:07;11.68;;;8.77;;
41311;SDS011;27061;41.648;24.568;2023-03-01T14:46:51;62.42;;;48.28;;
41311;SDS011;27061;41.648;24.568;2023-03-01T14:49:23;20.75;;;15.90;;
41311;SDS011;27061;41.648;24.568;2023-03-01T14:51:55;21.80;;;12.00;;
41311;SDS011;27061;41.648;24.568;2023-03-01T14:54:25;17.17;;;7.63;;
41311;SDS011;27061;41.648;24.568;2023-03-01T14:57:13;92.25;;;51.65;;
41311;SDS011;27061;41.648;24.568;2023-03-01T14:59:54;41.83;;;12.23;;
41311;SDS011;27061;41.648;24.568;2023-03-01T15:02:25;34.63;;;20.48;;
41311;SDS011;27061;41.648;24.568;2023-03-01T15:04:55;153.63;;;69.47;;
41311;SDS011;27061;41.648;24.568;2023-03-01T15:07:31;22.63;;;11.20;;
41311;SDS011;27061;41.648;24.568;2023-03-01T15:14:58;23.50;;;17.52;;
41311;SDS011;27061;41.648;24.568;2023-03-01T15:20:03;106.10;;;13.57;;
41311;SDS011;27061;41.648;24.568;2023-03-01T15:22:33;65.78;;;10.48;;
41311;SDS011;27061;41.648;24.568;2023-03-01T15:25:01;163.15;;;76.88;;
41311;SDS011;27061;41.648;24.568;2023-03-01T15:27:29;51.92;;;16.10;;
41311;SDS011;27061;41.648;24.568;2023-03-01T15:29:59;30.52;;;14.20;;
41311;SDS011;27061;41.648;24.568;2023-03-01T15:34:58;196.20;;;82.32;;
41311;SDS011;27061;41.648;24.568;2023-03-01T15:37:45;105.97;;;33.53;;
41311;SDS011;27061;41.648;24.568;2023-03-01T15:40:22;29.38;;;10.10;;
41311;SDS011;27061;41.648;24.568;2023-03-01T15:45:29;30.77;;;7.68;;
41311;SDS011;27061;41.648;24.568;2023-03-01T15:48:01;49.30;;;8.20;;
41311;SDS011;27061;41.648;24.568;2023-03-01T15:50:41;186.25;;;10.38;;
41311;SDS011;27061;41.648;24.568;2023-03-01T15:53:10;404.95;;;28.92;;
41311;SDS011;27061;41.648;24.568;2023-03-01T15:55:41;154.38;;;14.07;;
41311;SDS011;27061;41.648;24.568;2023-03-01T15:58:22;42.30;;;6.88;;
41311;SDS011;27061;41.648;24.568;2023-03-01T16:00:50;178.05;;;19.73;;
41311;SDS011;27061;41.648;24.568;2023-03-01T16:03:28;52.75;;;9.60;;
41311;SDS011;27061;41.648;24.568;2023-03-01T16:05:55;66.13;;;7.40;;
41311;SDS011;27061;41.648;24.568;2023-03-01T16:08:22;23.50;;;6.93;;
41311;SDS011;27061;41.648;24.568;2023-03-01T16:10:50;129.27;;;9.77;;
41311;SDS011;27061;41.648;24.568;2023-03-01T16:13:18;38.00;;;8.45;;
41311;SDS011;27061;41.648;24.568;2023-03-01T16:15:45;48.13;;;12.05;;
41311;SDS011;27061;41.648;24.568;2023-03-01T16:18:13;50.05;;;9.52;;
41311;SDS011;27061;41.648;24.568;2023-03-01T16:20:40;31.95;;;8.75;;
41311;SDS011;27061;41.648;24.568;2023-03-01T16:23:08;15.45;;;6.40;;
41311;SDS011;27061;41.648;24.568;2023-03-01T16:25:37;9.60;;;5.43;;
41311;SDS011;27061;41.648;24.568;2023-03-01T16:28:04;28.83;;;10.45;;
41311;SDS011;27061;41.648;24.568;2023-03-01T16:30:39;20.45;;;5.90;;
41311;SDS011;27061;41.648;24.568;2023-03-01T16:33:06;53.20;;;23.25;;
41311;SDS011;27061;41.648;24.568;2023-03-01T16:35:54;30.38;;;7.85;;
41311;SDS011;27061;41.648;24.568;2023-03-01T16:38:21;17.10;;;4.65;;
41311;SDS011;27061;41.648;24.568;2023-03-01T16:40:50;27.30;;;5.57;;
41311;SDS011;27061;41.648;24.568;2023-03-01T16:43:18;7.88;;;4.18;;
41311;SDS011;27061;41.648;24.568;2023-03-01T16:45:45;9.13;;;4.32;;
41311;SDS011;27061;41.648;24.568;2023-03-01T16:48:13;36.08;;;5.75;;
41311;SDS011;27061;41.648;24.568;2023-03-01T16:50:41;39.63;;;7.95;;
41311;SDS011;27061;41.648;24.568;2023-03-01T16:53:08;35.58;;;5.40;;
41311;SDS011;27061;41.648;24.568;2023-03-01T16:55:36;17.00;;;4.32;;
41311;SDS011;27061;41.648;24.568;2023-03-01T16:58:04;32.80;;;4.78;;
41311;SDS011;27061;41.648;24.568;2023-03-01T17:00:32;8.55;;;4.53;;
41311;SDS011;27061;41.648;24.568;2023-03-01T17:02:59;7.88;;;4.32;;
41311;SDS011;27061;41.648;24.568;2023-03-01T17:05:26;17.48;;;4.45;;
41311;SDS011;27061;41.648;24.568;2023-03-01T17:07:54;24.52;;;4.53;;
41311;SDS011;27061;41.648;24.568;2023-03-01T17:10:29;40.40;;;4.85;;
41311;SDS011;27061;41.648;24.568;2023-03-01T17:12:56;10.80;;;3.60;;
41311;SDS011;27061;41.648;24.568;2023-03-01T17:15:23;8.23;;;3.83;;
41311;SDS011;27061;41.648;24.568;2023-03-01T17:17:51;19.63;;;4.32;;
41311;SDS011;27061;41.648;24.568;2023-03-01T17:20:18;5.78;;;4.40;;